sensor_id;sensor_type;location;lat;lon;timestamp;temperature;humidity
14705;DHT22;7442;50.840;3.396;2022-07-29T00:01:14;26.40;46.00
14705;DHT22;7442;50.840;3.396;2022-07-29T00:03:59;26.40;46.10
14705;DHT22;7442;50.840;3.396;2022-07-29T00:06:45;26.40;46.10
14705;DHT22;7442;50.840;3.396;2022-07-29T00:09:32;26.40;46.10
14705;DHT22;7442;50.840;3.396;2022-07-29T00:12:21;26.40;46.20
14705;DHT22;7442;50.840;3.396;2022-07-29T00:15:08;26.50;46.00
14705;DHT22;7442;50.840;3.396;2022-07-29T00:17:54;26.40;45.90
14705;DHT22;7442;50.840;3.396;2022-07-29T00:20:48;26.40;45.90
14705;DHT22;7442;50.840;3.396;2022-07-29T00:23:34;26.50;45.90
14705;DHT22;7442;50.840;3.396;2022-07-29T00:26:20;26.50;45.80
14705;DHT22;7442;50.840;3.396;2022-07-29T00:29:07;26.50;45.70
14705;DHT22;7442;50.840;3.396;2022-07-29T00:31:53;26.50;45.60
14705;DHT22;7442;50.840;3.396;2022-07-29T00:34:40;26.50;46.20
14705;DHT22;7442;50.840;3.396;2022-07-29T00:37:44;26.50;45.60
14705;DHT22;7442;50.840;3.396;2022-07-29T00:40:31;26.50;45.60
14705;DHT22;7442;50.840;3.396;2022-07-29T00:43:24;26.50;45.60
14705;DHT22;7442;50.840;3.396;2022-07-29T00:46:11;26.50;45.60
14705;DHT22;7442;50.840;3.396;2022-07-29T00:48:58;26.60;45.60
14705;DHT22;7442;50.840;3.396;2022-07-29T00:51:44;26.50;45.60
14705;DHT22;7442;50.840;3.396;2022-07-29T00:54:32;26.50;45.70
14705;DHT22;7442;50.840;3.396;2022-07-29T00:57:19;26.50;45.70
14705;DHT22;7442;50.840;3.396;2022-07-29T01:00:08;26.50;45.70
14705;DHT22;7442;50.840;3.396;2022-07-29T01:02:55;26.50;45.60
14705;DHT22;7442;50.840;3.396;2022-07-29T01:05:44;26.50;45.80
14705;DHT22;7442;50.840;3.396;2022-07-29T01:08:32;26.50;45.80
14705;DHT22;7442;50.840;3.396;2022-07-29T01:11:20;26.40;45.90
14705;DHT22;7442;50.840;3.396;2022-07-29T01:14:07;26.40;45.80
14705;DHT22;7442;50.840;3.396;2022-07-29T01:23:15;26.40;45.80
14705;DHT22;7442;50.840;3.396;2022-07-29T01:29:11;26.40;45.90
14705;DHT22;7442;50.840;3.396;2022-07-29T01:32:11;26.40;45.90
14705;DHT22;7442;50.840;3.396;2022-07-29T01:35:04;26.40;45.90
14705;DHT22;7442;50.840;3.396;2022-07-29T01:38:01;26.40;45.80
14705;DHT22;7442;50.840;3.396;2022-07-29T01:40:58;26.40;45.90
14705;DHT22;7442;50.840;3.396;2022-07-29T01:43:44;26.40;45.80
14705;DHT22;7442;50.840;3.396;2022-07-29T01:46:37;26.50;45.80
14705;DHT22;7442;50.840;3.396;2022-07-29T01:49:28;26.50;45.60
14705;DHT22;7442;50.840;3.396;2022-07-29T01:52:34;26.50;45.60
14705;DHT22;7442;50.840;3.396;2022-07-29T01:55:27;26.40;45.70
14705;DHT22;7442;50.840;3.396;2022-07-29T01:58:13;26.40;45.80
14705;DHT22;7442;50.840;3.396;2022-07-29T02:01:01;26.40;45.80
14705;DHT22;7442;50.840;3.396;2022-07-29T02:03:49;26.40;45.70
14705;DHT22;7442;50.840;3.396;2022-07-29T02:06:42;26.30;45.90
14705;DHT22;7442;50.840;3.396;2022-07-29T02:09:31;26.30;45.90
14705;DHT22;7442;50.840;3.396;2022-07-29T02:12:19;26.30;46.00
14705;DHT22;7442;50.840;3.396;2022-07-29T02:15:08;26.30;46.00
14705;DHT22;7442;50.840;3.396;2022-07-29T02:18:01;26.30;45.90
14705;DHT22;7442;50.840;3.396;2022-07-29T02:20:50;26.20;46.00
14705;DHT22;7442;50.840;3.396;2022-07-29T02:23:39;26.20;46.10
14705;DHT22;7442;50.840;3.396;2022-07-29T02:26:26;26.20;46.20
14705;DHT22;7442;50.840;3.396;2022-07-29T02:29:15;26.20;46.10
14705;DHT22;7442;50.840;3.396;2022-07-29T02:32:03;26.30;46.00
14705;DHT22;7442;50.840;3.396;2022-07-29T02:34:51;26.30;45.90
14705;DHT22;7442;50.840;3.396;2022-07-29T02:37:46;26.20;46.00
14705;DHT22;7442;50.840;3.396;2022-07-29T02:40:38;26.30;45.90
14705;DHT22;7442;50.840;3.396;2022-07-29T02:43:27;26.30;45.90
14705;DHT22;7442;50.840;3.396;2022-07-29T02:46:20;26.40;45.80
14705;DHT22;7442;50.840;3.396;2022-07-29T02:49:35;26.30;45.80
14705;DHT22;7442;50.840;3.396;2022-07-29T02:52:33;26.30;45.90
14705;DHT22;7442;50.840;3.396;2022-07-29T02:55:37;26.20;45.90
14705;DHT22;7442;50.840;3.396;2022-07-29T02:58:39;26.20;46.00
14705;DHT22;7442;50.840;3.396;2022-07-29T03:01:28;26.20;46.00
14705;DHT22;7442;50.840;3.396;2022-07-29T03:04:15;26.10;46.10
14705;DHT22;7442;50.840;3.396;2022-07-29T03:07:08;26.10;46.10
14705;DHT22;7442;50.840;3.396;2022-07-29T03:09:55;26.20;46.30
14705;DHT22;7442;50.840;3.396;2022-07-29T03:12:42;26.20;46.20
14705;DHT22;7442;50.840;3.396;2022-07-29T03:15:29;26.20;46.00
14705;DHT22;7442;50.840;3.396;2022-07-29T03:18:17;26.30;46.10
14705;DHT22;7442;50.840;3.396;2022-07-29T03:21:04;26.20;46.10
14705;DHT22;7442;50.840;3.396;2022-07-29T03:23:50;26.20;46.10
14705;DHT22;7442;50.840;3.396;2022-07-29T03:26:37;26.20;46.00
14705;DHT22;7442;50.840;3.396;2022-07-29T03:29:24;26.20;46.00
14705;DHT22;7442;50.840;3.396;2022-07-29T03:32:11;26.20;46.00
14705;DHT22;7442;50.840;3.396;2022-07-29T03:34:57;26.10;46.00
14705;DHT22;7442;50.840;3.396;2022-07-29T03:37:50;26.10;46.00
14705;DHT22;7442;50.840;3.396;2022-07-29T03:40:54;26.00;46.10
14705;DHT22;7442;50.840;3.396;2022-07-29T03:43:42;26.00;46.20
14705;DHT22;7442;50.840;3.396;2022-07-29T03:46:30;26.00;46.40
14705;DHT22;7442;50.840;3.396;2022-07-29T03:49:18;25.90;46.30
14705;DHT22;7442;50.840;3.396;2022-07-29T03:52:06;25.90;46.50
14705;DHT22;7442;50.840;3.396;2022-07-29T03:54:53;25.90;46.40
14705;DHT22;7442;50.840;3.396;2022-07-29T03:57:40;25.90;46.40
14705;DHT22;7442;50.840;3.396;2022-07-29T04:00:31;25.90;46.40
14705;DHT22;7442;50.840;3.396;2022-07-29T04:03:19;25.90;46.40
14705;DHT22;7442;50.840;3.396;2022-07-29T04:06:07;25.90;46.50
14705;DHT22;7442;50.840;3.396;2022-07-29T04:08:53;25.90;46.50
14705;DHT22;7442;50.840;3.396;2022-07-29T04:11:41;25.80;46.60
14705;DHT22;7442;50.840;3.396;2022-07-29T04:14:27;25.80;46.60
14705;DHT22;7442;50.840;3.396;2022-07-29T04:17:13;25.70;46.80
14705;DHT22;7442;50.840;3.396;2022-07-29T04:20:00;25.70;46.90
14705;DHT22;7442;50.840;3.396;2022-07-29T04:22:46;25.60;46.90
14705;DHT22;7442;50.840;3.396;2022-07-29T04:25:40;25.60;46.90
14705;DHT22;7442;50.840;3.396;2022-07-29T04:28:26;25.60;46.90
14705;DHT22;7442;50.840;3.396;2022-07-29T04:31:13;25.60;47.00
14705;DHT22;7442;50.840;3.396;2022-07-29T04:34:00;25.60;46.80
14705;DHT22;7442;50.840;3.396;2022-07-29T04:36:46;25.60;46.90
14705;DHT22;7442;50.840;3.396;2022-07-29T04:39:33;25.70;46.90
14705;DHT22;7442;50.840;3.396;2022-07-29T04:42:19;25.70;46.70
14705;DHT22;7442;50.840;3.396;2022-07-29T04:45:06;25.70;46.60
14705;DHT22;7442;50.840;3.396;2022-07-29T04:47:53;25.80;46.80
14705;DHT22;7442;50.840;3.396;2022-07-29T04:50:40;25.80;46.80
14705;DHT22;7442;50.840;3.396;2022-07-29T04:53:27;25.70;46.60
14705;DHT22;7442;50.840;3.396;2022-07-29T04:56:13;25.80;46.60
14705;DHT22;7442;50.840;3.396;2022-07-29T04:58:59;25.80;46.60
14705;DHT22;7442;50.840;3.396;2022-07-29T05:01:46;25.80;46.60
14705;DHT22;7442;50.840;3.396;2022-07-29T05:04:32;25.70;46.70
14705;DHT22;7442;50.840;3.396;2022-07-29T05:07:19;25.80;46.60
14705;DHT22;7442;50.840;3.396;2022-07-29T05:10:06;25.80;46.50
14705;DHT22;7442;50.840;3.396;2022-07-29T05:12:52;25.80;46.50
14705;DHT22;7442;50.840;3.396;2022-07-29T05:15:38;25.80;46.60
14705;DHT22;7442;50.840;3.396;2022-07-29T05:18:25;25.80;46.50
14705;DHT22;7442;50.840;3.396;2022-07-29T05:21:12;25.80;46.60
14705;DHT22;7442;50.840;3.396;2022-07-29T05:23:58;25.80;46.60
14705;DHT22;7442;50.840;3.396;2022-07-29T05:26:47;25.80;46.50
14705;DHT22;7442;50.840;3.396;2022-07-29T05:29:40;25.80;46.40
14705;DHT22;7442;50.840;3.396;2022-07-29T05:32:30;25.80;46.40
14705;DHT22;7442;50.840;3.396;2022-07-29T05:35:17;25.90;46.40
14705;DHT22;7442;50.840;3.396;2022-07-29T05:38:03;25.90;46.40
14705;DHT22;7442;50.840;3.396;2022-07-29T05:40:50;25.90;46.40
14705;DHT22;7442;50.840;3.396;2022-07-29T05:43:36;25.90;46.40
14705;DHT22;7442;50.840;3.396;2022-07-29T05:46:22;25.80;46.50
14705;DHT22;7442;50.840;3.396;2022-07-29T05:49:08;25.80;46.60
14705;DHT22;7442;50.840;3.396;2022-07-29T05:51:55;25.80;46.60
14705;DHT22;7442;50.840;3.396;2022-07-29T05:54:41;25.80;46.50
14705;DHT22;7442;50.840;3.396;2022-07-29T05:57:30;25.80;46.40
14705;DHT22;7442;50.840;3.396;2022-07-29T06:00:16;25.90;46.40
14705;DHT22;7442;50.840;3.396;2022-07-29T06:03:03;25.80;46.50
14705;DHT22;7442;50.840;3.396;2022-07-29T06:05:56;25.80;46.40
14705;DHT22;7442;50.840;3.396;2022-07-29T06:11:09;25.90;46.40
14705;DHT22;7442;50.840;3.396;2022-07-29T06:13:56;25.90;46.40
14705;DHT22;7442;50.840;3.396;2022-07-29T06:16:42;25.90;46.40
14705;DHT22;7442;50.840;3.396;2022-07-29T06:19:28;25.90;46.40
14705;DHT22;7442;50.840;3.396;2022-07-29T06:22:22;25.90;46.40
14705;DHT22;7442;50.840;3.396;2022-07-29T06:25:09;25.90;46.40
14705;DHT22;7442;50.840;3.396;2022-07-29T06:27:58;25.90;46.50
14705;DHT22;7442;50.840;3.396;2022-07-29T06:30:44;25.90;46.50
14705;DHT22;7442;50.840;3.396;2022-07-29T06:33:31;26.00;46.40
14705;DHT22;7442;50.840;3.396;2022-07-29T06:36:17;26.00;46.20
14705;DHT22;7442;50.840;3.396;2022-07-29T06:39:07;26.00;46.20
14705;DHT22;7442;50.840;3.396;2022-07-29T06:41:54;26.10;46.20
14705;DHT22;7442;50.840;3.396;2022-07-29T06:44:40;26.00;46.20
14705;DHT22;7442;50.840;3.396;2022-07-29T06:47:27;26.00;46.30
14705;DHT22;7442;50.840;3.396;2022-07-29T06:50:14;26.10;46.20
14705;DHT22;7442;50.840;3.396;2022-07-29T06:53:00;26.10;46.30
14705;DHT22;7442;50.840;3.396;2022-07-29T06:55:46;25.80;46.90
14705;DHT22;7442;50.840;3.396;2022-07-29T06:58:33;25.70;47.20
14705;DHT22;7442;50.840;3.396;2022-07-29T07:01:20;25.60;47.40
14705;DHT22;7442;50.840;3.396;2022-07-29T07:04:07;25.60;47.40
14705;DHT22;7442;50.840;3.396;2022-07-29T07:06:55;25.50;47.60
14705;DHT22;7442;50.840;3.396;2022-07-29T07:09:41;25.50;47.50
14705;DHT22;7442;50.840;3.396;2022-07-29T07:12:28;25.60;47.40
14705;DHT22;7442;50.840;3.396;2022-07-29T07:15:14;25.50;47.40
14705;DHT22;7442;50.840;3.396;2022-07-29T07:18:00;25.50;47.90
14705;DHT22;7442;50.840;3.396;2022-07-29T07:20:47;25.50;47.90
14705;DHT22;7442;50.840;3.396;2022-07-29T07:23:33;25.70;47.50
14705;DHT22;7442;50.840;3.396;2022-07-29T07:26:21;25.80;47.20
14705;DHT22;7442;50.840;3.396;2022-07-29T07:29:07;26.00;47.30
14705;DHT22;7442;50.840;3.396;2022-07-29T07:31:53;26.10;47.10
14705;DHT22;7442;50.840;3.396;2022-07-29T07:34:40;26.00;46.60
14705;DHT22;7442;50.840;3.396;2022-07-29T07:37:34;26.10;46.60
14705;DHT22;7442;50.840;3.396;2022-07-29T07:40:20;26.00;46.60
14705;DHT22;7442;50.840;3.396;2022-07-29T07:43:06;26.10;46.70
14705;DHT22;7442;50.840;3.396;2022-07-29T07:45:55;26.20;46.50
14705;DHT22;7442;50.840;3.396;2022-07-29T07:48:43;26.10;46.60
14705;DHT22;7442;50.840;3.396;2022-07-29T07:51:29;26.10;46.50
14705;DHT22;7442;50.840;3.396;2022-07-29T07:54:16;26.20;46.30
14705;DHT22;7442;50.840;3.396;2022-07-29T07:57:02;26.30;46.30
14705;DHT22;7442;50.840;3.396;2022-07-29T07:59:49;26.50;46.30
14705;DHT22;7442;50.840;3.396;2022-07-29T08:02:35;26.60;46.00
14705;DHT22;7442;50.840;3.396;2022-07-29T08:05:22;26.70;45.70
14705;DHT22;7442;50.840;3.396;2022-07-29T08:08:08;26.60;45.60
14705;DHT22;7442;50.840;3.396;2022-07-29T08:10:55;26.50;45.50
14705;DHT22;7442;50.840;3.396;2022-07-29T08:13:42;26.70;45.30
14705;DHT22;7442;50.840;3.396;2022-07-29T08:16:28;26.70;45.40
14705;DHT22;7442;50.840;3.396;2022-07-29T08:19:15;26.80;45.30
14705;DHT22;7442;50.840;3.396;2022-07-29T08:22:02;27.00;45.30
14705;DHT22;7442;50.840;3.396;2022-07-29T08:24:47;26.90;45.40
14705;DHT22;7442;50.840;3.396;2022-07-29T08:27:41;26.90;45.20
14705;DHT22;7442;50.840;3.396;2022-07-29T08:30:27;27.10;45.50
14705;DHT22;7442;50.840;3.396;2022-07-29T08:33:14;27.20;44.80
14705;DHT22;7442;50.840;3.396;2022-07-29T08:36:01;27.20;45.00
14705;DHT22;7442;50.840;3.396;2022-07-29T08:38:47;27.40;44.50
14705;DHT22;7442;50.840;3.396;2022-07-29T08:41:35;27.30;44.80
14705;DHT22;7442;50.840;3.396;2022-07-29T08:44:22;27.30;44.80
14705;DHT22;7442;50.840;3.396;2022-07-29T08:47:09;27.50;44.40
14705;DHT22;7442;50.840;3.396;2022-07-29T08:49:56;27.60;44.00
14705;DHT22;7442;50.840;3.396;2022-07-29T08:52:43;27.70;44.10
14705;DHT22;7442;50.840;3.396;2022-07-29T08:55:30;27.50;44.40
14705;DHT22;7442;50.840;3.396;2022-07-29T08:58:17;27.00;44.00
14705;DHT22;7442;50.840;3.396;2022-07-29T09:01:05;27.10;44.10
14705;DHT22;7442;50.840;3.396;2022-07-29T09:03:57;27.00;45.20
14705;DHT22;7442;50.840;3.396;2022-07-29T09:06:51;27.10;44.80
14705;DHT22;7442;50.840;3.396;2022-07-29T09:09:37;27.10;44.60
14705;DHT22;7442;50.840;3.396;2022-07-29T09:12:30;27.10;44.40
14705;DHT22;7442;50.840;3.396;2022-07-29T09:15:17;27.20;44.20
14705;DHT22;7442;50.840;3.396;2022-07-29T09:18:04;27.30;43.90
14705;DHT22;7442;50.840;3.396;2022-07-29T09:20:52;27.30;43.70
14705;DHT22;7442;50.840;3.396;2022-07-29T09:24:07;27.20;43.50
14705;DHT22;7442;50.840;3.396;2022-07-29T09:26:54;27.30;43.70
14705;DHT22;7442;50.840;3.396;2022-07-29T09:29:41;27.50;43.10
14705;DHT22;7442;50.840;3.396;2022-07-29T09:32:28;27.50;43.60
14705;DHT22;7442;50.840;3.396;2022-07-29T09:35:17;27.80;42.70
14705;DHT22;7442;50.840;3.396;2022-07-29T09:38:13;28.00;42.50
14705;DHT22;7442;50.840;3.396;2022-07-29T09:41:02;28.00;42.60
14705;DHT22;7442;50.840;3.396;2022-07-29T09:43:59;28.10;42.80
14705;DHT22;7442;50.840;3.396;2022-07-29T09:47:00;27.70;42.40
14705;DHT22;7442;50.840;3.396;2022-07-29T09:49:58;27.70;42.40
14705;DHT22;7442;50.840;3.396;2022-07-29T09:52:50;27.70;42.70
14705;DHT22;7442;50.840;3.396;2022-07-29T09:55:49;27.70;42.50
14705;DHT22;7442;50.840;3.396;2022-07-29T09:58:36;27.60;43.00
14705;DHT22;7442;50.840;3.396;2022-07-29T10:01:29;27.50;43.10
14705;DHT22;7442;50.840;3.396;2022-07-29T10:04:22;27.50;43.40
14705;DHT22;7442;50.840;3.396;2022-07-29T10:07:09;27.60;43.60
14705;DHT22;7442;50.840;3.396;2022-07-29T10:09:57;27.70;42.50
14705;DHT22;7442;50.840;3.396;2022-07-29T10:12:57;27.80;41.60
14705;DHT22;7442;50.840;3.396;2022-07-29T10:15:44;27.80;41.90
14705;DHT22;7442;50.840;3.396;2022-07-29T10:18:33;27.90;41.40
14705;DHT22;7442;50.840;3.396;2022-07-29T10:21:20;27.80;41.50
14705;DHT22;7442;50.840;3.396;2022-07-29T10:24:07;27.70;42.00
14705;DHT22;7442;50.840;3.396;2022-07-29T10:26:56;27.70;42.10
14705;DHT22;7442;50.840;3.396;2022-07-29T10:29:43;27.70;42.20
14705;DHT22;7442;50.840;3.396;2022-07-29T10:33:06;27.60;41.80
14705;DHT22;7442;50.840;3.396;2022-07-29T10:36:11;27.50;41.90
14705;DHT22;7442;50.840;3.396;2022-07-29T10:44:42;27.40;42.20
14705;DHT22;7442;50.840;3.396;2022-07-29T10:47:30;27.40;41.50
14705;DHT22;7442;50.840;3.396;2022-07-29T10:50:17;27.40;41.50
14705;DHT22;7442;50.840;3.396;2022-07-29T10:53:05;27.50;41.80
14705;DHT22;7442;50.840;3.396;2022-07-29T10:55:52;27.60;41.80
14705;DHT22;7442;50.840;3.396;2022-07-29T10:58:39;27.50;41.70
14705;DHT22;7442;50.840;3.396;2022-07-29T11:01:29;27.60;41.80
14705;DHT22;7442;50.840;3.396;2022-07-29T11:07:21;27.70;41.70
14705;DHT22;7442;50.840;3.396;2022-07-29T11:13:04;27.50;41.10
14705;DHT22;7442;50.840;3.396;2022-07-29T11:15:55;27.60;41.20
14705;DHT22;7442;50.840;3.396;2022-07-29T11:21:59;27.80;41.00
14705;DHT22;7442;50.840;3.396;2022-07-29T11:24:47;27.80;40.80
14705;DHT22;7442;50.840;3.396;2022-07-29T11:27:35;28.00;40.80
14705;DHT22;7442;50.840;3.396;2022-07-29T11:30:46;27.90;42.90
14705;DHT22;7442;50.840;3.396;2022-07-29T11:33:32;28.20;40.80
14705;DHT22;7442;50.840;3.396;2022-07-29T11:36:19;28.10;41.30
14705;DHT22;7442;50.840;3.396;2022-07-29T11:40:09;28.10;41.70
14705;DHT22;7442;50.840;3.396;2022-07-29T11:45:21;28.10;42.30
14705;DHT22;7442;50.840;3.396;2022-07-29T11:48:16;28.00;42.40
14705;DHT22;7442;50.840;3.396;2022-07-29T11:51:06;27.90;42.60
14705;DHT22;7442;50.840;3.396;2022-07-29T11:53:52;27.80;42.70
14705;DHT22;7442;50.840;3.396;2022-07-29T11:56:41;27.70;42.70
14705;DHT22;7442;50.840;3.396;2022-07-29T11:59:29;27.70;42.80
14705;DHT22;7442;50.840;3.396;2022-07-29T12:02:17;27.80;42.70
14705;DHT22;7442;50.840;3.396;2022-07-29T12:05:07;27.80;42.50
14705;DHT22;7442;50.840;3.396;2022-07-29T12:07:58;27.80;42.40
14705;DHT22;7442;50.840;3.396;2022-07-29T12:10:45;27.80;42.70
14705;DHT22;7442;50.840;3.396;2022-07-29T12:13:39;27.70;42.80
14705;DHT22;7442;50.840;3.396;2022-07-29T12:16:36;27.70;42.80
14705;DHT22;7442;50.840;3.396;2022-07-29T12:19:23;27.80;42.80
14705;DHT22;7442;50.840;3.396;2022-07-29T12:22:10;27.80;42.80
14705;DHT22;7442;50.840;3.396;2022-07-29T12:25:02;27.80;42.90
14705;DHT22;7442;50.840;3.396;2022-07-29T12:28:03;27.80;42.80
14705;DHT22;7442;50.840;3.396;2022-07-29T12:30:51;27.80;42.60
14705;DHT22;7442;50.840;3.396;2022-07-29T12:33:38;27.80;42.80
14705;DHT22;7442;50.840;3.396;2022-07-29T12:36:24;27.80;42.40
14705;DHT22;7442;50.840;3.396;2022-07-29T12:39:11;27.80;42.50
14705;DHT22;7442;50.840;3.396;2022-07-29T12:41:57;27.80;42.40
14705;DHT22;7442;50.840;3.396;2022-07-29T12:44:45;27.80;42.10
14705;DHT22;7442;50.840;3.396;2022-07-29T12:47:32;27.90;41.90
14705;DHT22;7442;50.840;3.396;2022-07-29T12:50:25;27.90;42.00
14705;DHT22;7442;50.840;3.396;2022-07-29T12:53:12;28.00;41.90
14705;DHT22;7442;50.840;3.396;2022-07-29T12:55:59;28.00;42.00
14705;DHT22;7442;50.840;3.396;2022-07-29T12:58:49;28.00;41.80
14705;DHT22;7442;50.840;3.396;2022-07-29T13:01:37;28.10;41.70
14705;DHT22;7442;50.840;3.396;2022-07-29T13:04:31;28.10;41.70
14705;DHT22;7442;50.840;3.396;2022-07-29T13:07:23;28.00;41.50
14705;DHT22;7442;50.840;3.396;2022-07-29T13:10:16;28.10;41.60
14705;DHT22;7442;50.840;3.396;2022-07-29T13:16:05;28.10;41.20
14705;DHT22;7442;50.840;3.396;2022-07-29T13:18:40;28.10;41.20
14705;DHT22;7442;50.840;3.396;2022-07-29T13:21:27;28.20;41.10
14705;DHT22;7442;50.840;3.396;2022-07-29T13:24:13;28.10;41.20
14705;DHT22;7442;50.840;3.396;2022-07-29T13:27:00;28.20;41.30
14705;DHT22;7442;50.840;3.396;2022-07-29T13:29:47;28.10;41.40
14705;DHT22;7442;50.840;3.396;2022-07-29T13:32:35;28.10;41.40
14705;DHT22;7442;50.840;3.396;2022-07-29T13:35:21;28.10;41.40
14705;DHT22;7442;50.840;3.396;2022-07-29T13:38:09;28.00;41.50
14705;DHT22;7442;50.840;3.396;2022-07-29T13:40:55;28.10;41.60
14705;DHT22;7442;50.840;3.396;2022-07-29T13:43:42;28.10;41.40
14705;DHT22;7442;50.840;3.396;2022-07-29T13:46:28;28.20;41.30
14705;DHT22;7442;50.840;3.396;2022-07-29T13:49:14;28.20;41.20
14705;DHT22;7442;50.840;3.396;2022-07-29T13:52:01;28.20;41.10
14705;DHT22;7442;50.840;3.396;2022-07-29T13:54:48;28.30;41.10
14705;DHT22;7442;50.840;3.396;2022-07-29T13:57:34;28.40;41.10
14705;DHT22;7442;50.840;3.396;2022-07-29T14:00:24;28.30;41.00
14705;DHT22;7442;50.840;3.396;2022-07-29T14:03:11;28.40;41.20
14705;DHT22;7442;50.840;3.396;2022-07-29T14:05:59;28.30;41.30
14705;DHT22;7442;50.840;3.396;2022-07-29T14:08:48;28.30;41.40
14705;DHT22;7442;50.840;3.396;2022-07-29T14:11:35;28.20;41.40
14705;DHT22;7442;50.840;3.396;2022-07-29T14:14:23;28.20;41.50
14705;DHT22;7442;50.840;3.396;2022-07-29T14:17:10;28.30;41.50
14705;DHT22;7442;50.840;3.396;2022-07-29T14:19:56;28.30;41.40
14705;DHT22;7442;50.840;3.396;2022-07-29T14:22:42;28.30;41.40
14705;DHT22;7442;50.840;3.396;2022-07-29T14:25:29;28.30;41.40
14705;DHT22;7442;50.840;3.396;2022-07-29T14:28:15;28.30;41.50
14705;DHT22;7442;50.840;3.396;2022-07-29T14:31:02;28.30;41.60
14705;DHT22;7442;50.840;3.396;2022-07-29T14:33:48;28.20;41.70
14705;DHT22;7442;50.840;3.396;2022-07-29T14:36:34;28.20;41.70
14705;DHT22;7442;50.840;3.396;2022-07-29T14:39:22;28.20;41.70
14705;DHT22;7442;50.840;3.396;2022-07-29T14:42:09;28.20;41.70
14705;DHT22;7442;50.840;3.396;2022-07-29T14:44:56;28.20;41.70
14705;DHT22;7442;50.840;3.396;2022-07-29T14:47:42;28.30;41.60
14705;DHT22;7442;50.840;3.396;2022-07-29T14:50:29;28.30;41.50
14705;DHT22;7442;50.840;3.396;2022-07-29T14:53:16;28.30;41.40
14705;DHT22;7442;50.840;3.396;2022-07-29T14:56:02;28.50;41.40
14705;DHT22;7442;50.840;3.396;2022-07-29T14:58:49;28.50;41.20
14705;DHT22;7442;50.840;3.396;2022-07-29T15:01:35;28.50;41.20
14705;DHT22;7442;50.840;3.396;2022-07-29T15:04:22;28.50;41.20
14705;DHT22;7442;50.840;3.396;2022-07-29T15:07:08;28.50;41.40
14705;DHT22;7442;50.840;3.396;2022-07-29T15:09:54;28.50;41.40
14705;DHT22;7442;50.840;3.396;2022-07-29T15:12:41;28.50;41.40
14705;DHT22;7442;50.840;3.396;2022-07-29T15:15:27;28.60;41.30
14705;DHT22;7442;50.840;3.396;2022-07-29T15:18:14;28.60;41.30
14705;DHT22;7442;50.840;3.396;2022-07-29T15:21:01;28.50;41.40
14705;DHT22;7442;50.840;3.396;2022-07-29T15:23:47;28.50;41.40
14705;DHT22;7442;50.840;3.396;2022-07-29T15:26:34;28.50;41.40
14705;DHT22;7442;50.840;3.396;2022-07-29T15:29:21;28.60;41.50
14705;DHT22;7442;50.840;3.396;2022-07-29T15:32:07;28.50;41.60
14705;DHT22;7442;50.840;3.396;2022-07-29T15:34:54;28.50;41.00
14705;DHT22;7442;50.840;3.396;2022-07-29T15:37:41;28.50;42.00
14705;DHT22;7442;50.840;3.396;2022-07-29T15:40:27;28.70;41.30
14705;DHT22;7442;50.840;3.396;2022-07-29T15:43:14;28.80;40.50
14705;DHT22;7442;50.840;3.396;2022-07-29T15:46:01;28.80;40.90
14705;DHT22;7442;50.840;3.396;2022-07-29T15:48:58;28.80;41.10
14705;DHT22;7442;50.840;3.396;2022-07-29T15:51:45;28.80;41.40
14705;DHT22;7442;50.840;3.396;2022-07-29T15:54:33;28.70;41.20
14705;DHT22;7442;50.840;3.396;2022-07-29T15:57:19;28.60;41.10
14705;DHT22;7442;50.840;3.396;2022-07-29T16:00:07;28.70;41.30
14705;DHT22;7442;50.840;3.396;2022-07-29T16:02:54;28.60;41.50
14705;DHT22;7442;50.840;3.396;2022-07-29T16:05:40;28.50;41.30
14705;DHT22;7442;50.840;3.396;2022-07-29T16:08:26;28.50;41.60
14705;DHT22;7442;50.840;3.396;2022-07-29T16:11:13;28.40;41.50
14705;DHT22;7442;50.840;3.396;2022-07-29T16:13:59;28.50;41.60
14705;DHT22;7442;50.840;3.396;2022-07-29T16:16:46;28.50;41.80
14705;DHT22;7442;50.840;3.396;2022-07-29T16:19:32;28.50;41.60
14705;DHT22;7442;50.840;3.396;2022-07-29T16:22:18;28.50;41.60
14705;DHT22;7442;50.840;3.396;2022-07-29T16:25:06;28.50;41.10
14705;DHT22;7442;50.840;3.396;2022-07-29T16:27:53;28.40;41.20
14705;DHT22;7442;50.840;3.396;2022-07-29T16:30:45;28.30;41.40
14705;DHT22;7442;50.840;3.396;2022-07-29T16:33:32;28.30;41.40
14705;DHT22;7442;50.840;3.396;2022-07-29T16:36:18;28.30;41.30
14705;DHT22;7442;50.840;3.396;2022-07-29T16:39:06;28.30;41.30
14705;DHT22;7442;50.840;3.396;2022-07-29T16:41:55;28.20;41.30
14705;DHT22;7442;50.840;3.396;2022-07-29T16:44:41;28.20;41.10
14705;DHT22;7442;50.840;3.396;2022-07-29T16:47:27;28.20;41.50
14705;DHT22;7442;50.840;3.396;2022-07-29T16:50:21;28.10;41.50
14705;DHT22;7442;50.840;3.396;2022-07-29T16:53:14;28.10;41.90
14705;DHT22;7442;50.840;3.396;2022-07-29T16:56:01;28.10;41.90
14705;DHT22;7442;50.840;3.396;2022-07-29T16:58:47;28.20;42.00
14705;DHT22;7442;50.840;3.396;2022-07-29T17:01:33;28.00;42.00
14705;DHT22;7442;50.840;3.396;2022-07-29T17:04:21;28.10;42.40
14705;DHT22;7442;50.840;3.396;2022-07-29T17:07:08;28.00;42.60
14705;DHT22;7442;50.840;3.396;2022-07-29T17:09:56;28.00;42.80
14705;DHT22;7442;50.840;3.396;2022-07-29T17:12:43;28.00;42.40
14705;DHT22;7442;50.840;3.396;2022-07-29T17:15:31;28.00;41.50
14705;DHT22;7442;50.840;3.396;2022-07-29T17:18:17;28.00;41.30
14705;DHT22;7442;50.840;3.396;2022-07-29T17:21:04;28.00;41.00
14705;DHT22;7442;50.840;3.396;2022-07-29T17:23:50;28.00;41.50
14705;DHT22;7442;50.840;3.396;2022-07-29T17:26:36;28.00;41.80
14705;DHT22;7442;50.840;3.396;2022-07-29T17:29:24;28.00;41.90
14705;DHT22;7442;50.840;3.396;2022-07-29T17:32:14;27.90;42.10
14705;DHT22;7442;50.840;3.396;2022-07-29T17:35:00;28.00;42.10
14705;DHT22;7442;50.840;3.396;2022-07-29T17:37:47;27.90;41.90
14705;DHT22;7442;50.840;3.396;2022-07-29T17:40:33;27.90;42.10
14705;DHT22;7442;50.840;3.396;2022-07-29T17:43:20;27.90;42.40
14705;DHT22;7442;50.840;3.396;2022-07-29T17:46:07;27.90;42.80
14705;DHT22;7442;50.840;3.396;2022-07-29T17:48:59;27.80;42.90
14705;DHT22;7442;50.840;3.396;2022-07-29T17:51:48;27.80;43.10
14705;DHT22;7442;50.840;3.396;2022-07-29T17:54:34;27.70;43.20
14705;DHT22;7442;50.840;3.396;2022-07-29T17:57:21;27.70;43.20
14705;DHT22;7442;50.840;3.396;2022-07-29T18:00:08;27.60;43.10
14705;DHT22;7442;50.840;3.396;2022-07-29T18:02:54;27.60;43.10
14705;DHT22;7442;50.840;3.396;2022-07-29T18:05:41;27.60;43.40
14705;DHT22;7442;50.840;3.396;2022-07-29T18:08:27;27.50;43.40
14705;DHT22;7442;50.840;3.396;2022-07-29T18:11:14;27.40;43.10
14705;DHT22;7442;50.840;3.396;2022-07-29T18:14:00;27.40;43.00
14705;DHT22;7442;50.840;3.396;2022-07-29T18:16:48;27.40;42.80
14705;DHT22;7442;50.840;3.396;2022-07-29T18:19:35;27.40;42.50
14705;DHT22;7442;50.840;3.396;2022-07-29T18:22:21;27.30;42.60
14705;DHT22;7442;50.840;3.396;2022-07-29T18:25:08;27.30;42.50
14705;DHT22;7442;50.840;3.396;2022-07-29T18:27:56;27.20;42.50
14705;DHT22;7442;50.840;3.396;2022-07-29T18:30:49;27.20;42.40
14705;DHT22;7442;50.840;3.396;2022-07-29T18:33:37;27.10;42.40